Hlavní strana
METAR-TAF:

METAR-TAF

Letiště :

Sørkjosen, Norsko

zeměpisná šířka: 69-47N, zeměpisná délka: 020-58E, výška: 0 m

Aktuální stav počasí

Zpráva byla vytvořena před 1 hodinou a 26 minutami, v 20:50 UTC
Západoseverozápadní vítr 13 kt
Teplota -2°C
Vlhkost vzduchu 74%
Tlak 1007 hPa
Skoro jasno ve výšce 1500 ft
Oblačno až skoro zataženo ve výšce 4000 ft
přeháňky v blízkosti

METAR: ENSR 252050Z 28008KT VCSH FEW015 BKN040 M02/M06 Q1007 WIND 1119FT 30013KT

Čas: 23:16 (22:16 UTC)


TAF: chybějící

Stav a předpovědi počasí z více než 4 000 letišť (zprávy METAR a TAF).

Červené a žluté tečky na mapě představují dostupné meteorologické stanice.

Když kurzor umístíte na tečku, zobrazí se název stanice.

Pak kliknutím zobrazíte stav a předpověď počasí.

Chcete-li změnit mapu, kliknutím na zelené tlačítko se znaménkem +mapu přiblížíte, kliknutím na zelené tlačítko se znaménkem – mapu oddálíte a kliknutím na zelené šipky přejdete na sousední mapy.


METAR-TAF: